Flight Track Log - Related Links

Times and Time Zones

All times are in EDT time to prevent confusion due to time zone crossing. See the AAY876 flight status page for this flight to view local times or setup timezone preferences in your user account.

Time Position Orientation Groundspeed Altitude Reporting Facility
EDT Latitude Longitude Course Direction KTS MPH feet Rate Location/Type
03:49PM 27.9000 -82.6833 180° South 171 197 700  Level Tampa TRACON
03:50PM 27.8833 -82.6833 180° South 171 197 1,300 1,500 Climbing Tampa TRACON
03:51PM 27.8167 -82.6833 180° South 205 236 2,800 1,400 Climbing Tampa TRACON
03:52PM 27.8000 -82.7333 249° West 224 258 4,100 1,500 Climbing Tampa TRACON
03:53PM 27.8667 -82.7667 336° Northwest 282 325 5,800 2,063 Climbing Tampa TRACON
03:55PM 28.0392 -82.7703 359° North 286 329 10,700 1,875 Climbing Jacksonville Center
03:56PM 28.1331 -82.7867 351° North 311 358 11,800 1,500 Climbing Jacksonville Center
03:57PM 28.2397 -82.8031 352° North 350 403 13,700 2,000 Climbing Jacksonville Center
03:58PM 28.3481 -82.8242 350° North 385 443 15,800 2,050 Climbing Jacksonville Center
03:59PM 28.4631 -82.8453 351° North 403 464 17,800 1,900 Climbing Jacksonville Center
04:00PM 28.5839 -82.8642 352° North 418 481 19,600 1,600 Climbing Jacksonville Center
04:01PM 28.7072 -82.8831 352° North 433 498 21,000 1,400 Climbing Jacksonville Center
04:02PM 28.8303 -82.9092 349° North 439 505 22,400 1,350 Climbing Jacksonville Center
04:03PM 28.9597 -82.9331 351° North 452 520 23,700 1,650 Climbing Jacksonville Center
04:04PM 29.0869 -82.9519 353° North 458 527 25,700 1,850 Climbing Jacksonville Center
04:05PM 29.2100 -82.9783 349° North 458 527 27,400 1,550 Climbing Jacksonville Center
04:06PM 29.3333 -82.9975 352° North 453 521 28,800 1,250 Climbing Jacksonville Center
04:07PM 29.4544 -83.0236 349° North 443 510 29,900 1,100 Climbing Jacksonville Center
04:08PM 29.5794 -83.0478 350° North 443 510 31,000 1,050 Climbing Jacksonville Center
04:09PM 29.6881 -83.0981 338° Northwest 431 496 32,000 500 Climbing Jacksonville Center
04:10PM 29.8028 -83.1439 341° North 431 496 32,000  Level Jacksonville Center
04:11PM 29.9092 -83.1944 338° Northwest 426 490 32,000  Level Jacksonville Center
04:12PM 30.0364 -83.2500 339° North 426 490 32,000  Level Jacksonville Center
04:13PM 30.1447 -83.3033 337° Northwest 426 490 32,000  Level Jacksonville Center
04:14PM 30.2553 -83.3519 339° North 426 490 32,000  Level Jacksonville Center
04:15PM 30.3636 -83.4078 336° Northwest 426 490 32,000  Level Jacksonville Center
04:16PM 30.4761 -83.4567 339° North 426 490 32,000  Level Jacksonville Center
04:17PM 30.5867 -83.5128 336° Northwest 431 496 32,000 -50 Level Jacksonville Center
04:18PM 30.6969 -83.5594 340° North 431 496 31,900  Descending Jacksonville Center
04:19PM 30.7947 -83.6108 336° Northwest 431 496 32,000 50 Climbing Jacksonville Center
04:20PM 30.9053 -83.6600 339° North 426 490 32,000  Level Jacksonville Center
04:21PM 31.0156 -83.7167 336° Northwest 426 490 32,000  Level Jacksonville Center
04:22PM 31.1300 -83.7664 340° North 431 496 32,000  Level Jacksonville Center
04:24PM 31.3750 -83.8856 337° Northwest 433 498 32,000  Level Atlanta Center
04:25PM 31.4836 -83.9439 335° Northwest 433 498 32,000  Level Atlanta Center
04:26PM 31.5881 -83.9756 346° North 433 498 32,000  Level Atlanta Center
04:27PM 31.7092 -84.0047 348° North 433 498 32,000  Level Atlanta Center
04:28PM 31.8300 -84.0292 350° North 433 498 32,000  Level Atlanta Center
04:29PM 31.9492 -84.0558 349° North 433 498 32,000  Level Atlanta Center
04:30PM 32.0700 -84.0806 350° North 433 498 32,000  Level Atlanta Center
04:31PM 32.1892 -84.1075 349° North 433 498 32,000  Level Atlanta Center
04:32PM 32.3100 -84.1322 350° North 433 498 32,000  Level Atlanta Center
04:33PM 32.4292 -84.1619 348° North 433 498 32,000  Level Atlanta Center
04:34PM 32.5481 -84.1842 351° North 433 498 32,000  Level Atlanta Center
04:35PM 32.6669 -84.2164 347° North 428 493 32,000  Level Atlanta Center
04:36PM 32.7881 -84.2389 351° North 428 493 32,000  Level Atlanta Center
04:37PM 32.9028 -84.2764 345° North 428 493 32,000  Level Atlanta Center
04:38PM 33.0197 -84.2964 352° North 428 493 32,000  Level Atlanta Center
04:39PM 33.1406 -84.3292 347° North 436 502 32,000  Level Atlanta Center
04:40PM 33.2719 -84.3544 351° North 436 502 32,000  Level Atlanta Center
04:41PM 33.3908 -84.3847 348° North 436 502 32,000  Level Atlanta Center
04:42PM 33.5119 -84.4100 350° North 431 496 32,000  Level Atlanta Center
04:43PM 33.6286 -84.4406 348° North 431 496 32,000  Level Atlanta Center
04:44PM 33.7475 -84.4636 351° North 431 496 32,000  Level Atlanta Center
04:45PM 33.8581 -84.4967 346° North 437 503 32,000  Level Atlanta Center
04:46PM 33.9811 -84.5197 351° North 437 503 32,000  Level Atlanta Center
04:47PM 34.1125 -84.5556 347° North 442 509 32,000  Level Atlanta Center
04:48PM 34.2375 -84.5814 350° North 451 519 32,000  Level Atlanta Center
04:49PM 34.3564 -84.6100 349° North 441 507 32,000  Level Atlanta Center
04:50PM 34.4731 -84.6411 348° North 433 498 32,000  Level Atlanta Center
04:51PM 34.5942 -84.6697 349° North 428 493 32,000  Level Atlanta Center
04:52PM 34.7086 -84.7008 347° North 428 493 32,000  Level Atlanta Center
04:53PM 34.8275 -84.7294 349° North 428 493 32,000  Level Atlanta Center
04:54PM 34.9483 -84.7583 349° North 433 498 32,000  Level Atlanta Center
04:55PM 35.0714 -84.7900 348° North 433 498 32,000  Level Atlanta Center
04:56PM 35.1922 -84.8189 349° North 433 498 32,000  Level Atlanta Center
04:57PM 35.3150 -84.8506 348° North 438 504 32,000  Level Atlanta Center
04:58PM 35.4358 -84.8800 349° North 438 504 32,000  Level Atlanta Center
04:59PM 35.5567 -84.9144 347° North 443 510 32,000  Level Atlanta Center
05:00PM 35.6794 -84.9439 349° North 443 510 32,000  Level Atlanta Center
05:01PM 35.8044 -84.9758 348° North 450 518 32,000  Level Atlanta Center
05:02PM 35.9283 -85.0036 350° North 451 519 32,000  Level Indianapolis Center
05:03PM 36.0547 -85.0397 347° North 443 510 32,000  Level Indianapolis Center
05:04PM 36.1758 -85.0664 350° North 441 507 32,000  Level Indianapolis Center
05:05PM 36.2961 -85.1011 347° North 441 507 32,000  Level Indianapolis Center
05:06PM 36.4172 -85.1272 350° North 441 507 32,000 488 Level Indianapolis Center
05:07PM 36.5378 -85.1594 348° North 441 507 33,000 774 Climbing Indianapolis Center
05:08PM 36.6583 -85.1914 348° North 442 509 33,600 488 Climbing Indianapolis Center
05:09PM 36.7769 -85.2275 346° North 442 509 34,000 195 Climbing Indianapolis Center
05:10PM 36.8986 -85.2511 351° North 441 507 34,000  Level Indianapolis Center
05:11PM 37.0275 -85.3178 338° Northwest 423 487 34,000  Level Indianapolis Center
05:12PM 37.1242 -85.3831 332° Northwest 416 479 34,000  Level Indianapolis Center
05:13PM 37.2319 -85.4475 335° Northwest 421 484 34,000  Level Indianapolis Center
05:15PM 37.4467 -85.5925 325° Northwest 417 480 34,000  Level Indianapolis Center
05:16PM 37.5494 -85.6675 330° Northwest 421 484 34,000  Level Indianapolis Center
05:17PM 37.6547 -85.7392 332° Northwest 423 487 34,000  Level Indianapolis Center
05:18PM 37.7617 -85.8069 333° Northwest 426 490 34,000  Level Indianapolis Center
05:20PM 37.8614 -85.8839 329° Northwest 425 489 34,000  Level Indianapolis Center
05:21PM 37.9664 -85.9536 332° Northwest 423 487 34,000  Level Indianapolis Center
05:22PM 38.0922 -86.0456 330° Northwest 429 494 34,000  Level Indianapolis Center
05:23PM 38.2033 -86.1128 335° Northwest 435 501 34,000  Level Indianapolis Center
05:24PM 38.3056 -86.1897 329° Northwest 433 498 34,000  Level Indianapolis Center
05:25PM 38.4106 -86.2603 332° Northwest 430 495 34,000  Level Indianapolis Center
05:26PM 38.5133 -86.3361 330° Northwest 429 494 34,000  Level Indianapolis Center
05:27PM 38.6178 -86.4081 332° Northwest 426 490 34,000  Level Indianapolis Center
05:28PM 38.7228 -86.4831 331° Northwest 427 491 34,000  Level Indianapolis Center
05:29PM 38.8483 -86.5692 332° Northwest 427 491 34,000  Level Indianapolis Center
05:30PM 38.9500 -86.6475 329° Northwest 427 491 34,000  Level Indianapolis Center
05:31PM 39.0553 -86.7194 332° Northwest 427 491 34,000  Level Indianapolis Center
05:32PM 39.1669 -86.8036 330° Northwest 428 493 34,000  Level Indianapolis Center
05:33PM 39.2736 -86.8753 333° Northwest 428 493 34,000  Level Indianapolis Center
05:34PM 39.3778 -86.9536 330° Northwest 428 493 34,000  Level Indianapolis Center
05:35PM 39.4844 -87.0261 332° Northwest 429 494 34,000  Level Indianapolis Center
05:36PM 39.5881 -87.1061 329° Northwest 430 495 34,000  Level Indianapolis Center
05:37PM 39.6939 -87.1797 332° Northwest 430 495 34,000  Level Indianapolis Center
05:38PM 39.7978 -87.2589 330° Northwest 430 495 34,000  Level Indianapolis Center
05:39PM 39.9022 -87.3358 331° Northwest 430 495 34,000  Level Indianapolis Center
05:40PM 40.0267 -87.4311 330° Northwest 431 496 34,000  Level Indianapolis Center
05:41PM 40.1172 -87.5311 320° Northwest 430 495 34,000  Level Indianapolis Center
05:42PM 40.2061 -87.6222 322° Northwest 428 493 34,000  Level Chicago Center
05:43PM 40.2961 -87.7225 320° Northwest 428 493 34,000  Level Chicago Center
05:44PM 40.4061 -87.8389 321° Northwest 426 490 34,000  Level Chicago Center
05:45PM 40.4928 -87.9375 319° Northwest 417 480 34,000  Level Chicago Center
05:46PM 40.5825 -88.0331 321° Northwest 416 479 34,000  Level Chicago Center
05:47PM 40.6700 -88.1344 319° Northwest 418 481 34,000  Level Chicago Center
05:48PM 40.7611 -88.2306 321° Northwest 417 480 34,000 -339 Level Chicago Center
05:49PM 40.8528 -88.3378 319° Northwest 418 481 33,300 -1,452 Descending Chicago Center
05:50PM 40.9403 -88.4339 320° Northwest 422 486 31,000 -2,390 Descending Chicago Center
05:51PM 41.0275 -88.5358 319° Northwest 418 481 28,400 -2,878 Descending Chicago Center
05:52PM 41.1369 -88.6525 321° Northwest 418 481 25,100 -2,952 Descending Chicago Center
05:53PM 41.2278 -88.7583 319° Northwest 429 494 22,300 -2,758 Descending Chicago Center
05:55PM 41.3203 -88.8578 321° Northwest 426 490 19,400 -2,878 Descending Chicago Center
05:56PM 41.4011 -88.9564 318° Northwest 398 458 16,400 -2,732 Descending Chicago Center
05:57PM 41.4842 -89.0453 321° Northwest 386 444 13,800 -1,645 Descending Chicago Center
05:58PM 41.5561 -89.1356 317° Northwest 361 415 13,000 -390 Descending Chicago Center
05:59PM 41.6292 -89.2133 321° Northwest 337 388 13,000  Level Chicago Center
06:00PM 41.6953 -89.2911 319° Northwest 320 368 13,000 -919 Level Chicago Center
06:01PM 41.7767 -89.3825 320° Northwest 318 366 11,100 -2,177 Descending Chicago Center
06:02PM 41.8447 -89.4578 321° Northwest 317 365 8,500 -2,468 Descending Chicago Center
06:03PM 41.9172 -89.5111 331° Northwest 313 360 6,000 -2,098 Descending Chicago Center
06:04PM 41.9867 -89.4567 30° Northeast 311 358 4,200 -1,268 Descending Chicago Center
06:05PM 42.0389 -89.3883 44° Northeast 289 333 3,400 -629 Descending Chicago Center
06:06PM 42.0778 -89.3289 49° Northeast 257 296 2,900 -484 Descending Chicago Center
06:08PM 42.1822 -89.1232 14° North  Level Estimated
06:15PM 42.1833 -89.0833 14° North  Level FlightAware Approximate

Login

Don't have an account? Register now (free) for customized features, flight alerts, and more!